Terminal Aerodrome Forecast
Issued by NWS

Home | Current Version | Previous Version | Text Only | Print | Product List | Glossary On
Versions: 1 2 3 4 5 6 7 8 9 10 11 12 13 14 15 16 17 18 19 20 21 22 23 24 25 26 27 28 29
000
FTUS45 KREV 242300
TAFTRK
TAF
KTRK 242340Z 2500/2524 24013G22KT P6SM FEW030 BKN040
     FM250400 21010G18KT 6SM -RASN BKN020 OVC030
     FM251000 19008KT 1SM -SN SCT008 OVC014
     FM251600 20009KT 2SM -SHSN SCT012 OVC020
     FM252000 23012G24KT 6SM -SHSN SCT020 BKN028=

USA.gov is the U.S. government's official web portal to all federal, state and local government web resources and services.